sensor_id;sensor_type;location;lat;lon;timestamp;pressure;altitude;pressure_sealevel;temperature;humidity
75945;BME280;64628;50.104;14.614;2023-09-19T00:01:31;98061.73;;;21.25;45.19
75945;BME280;64628;50.104;14.614;2023-09-19T00:03:56;98060.69;;;21.25;45.09
75945;BME280;64628;50.104;14.614;2023-09-19T00:06:21;98060.18;;;21.17;45.24
75945;BME280;64628;50.104;14.614;2023-09-19T00:08:47;98058.18;;;21.17;45.09
75945;BME280;64628;50.104;14.614;2023-09-19T00:11:12;98053.40;;;21.24;45.06
75945;BME280;64628;50.104;14.614;2023-09-19T00:13:37;98050.13;;;20.98;44.99
75945;BME280;64628;50.104;14.614;2023-09-19T00:16:08;98052.33;;;21.15;44.96
75945;BME280;64628;50.104;14.614;2023-09-19T00:18:27;98051.53;;;21.34;45.03
75945;BME280;64628;50.104;14.614;2023-09-19T00:20:52;98053.58;;;20.51;45.21
75945;BME280;64628;50.104;14.614;2023-09-19T00:23:17;98056.66;;;20.78;45.14
75945;BME280;64628;50.104;14.614;2023-09-19T00:25:42;98059.73;;;20.68;45.24
75945;BME280;64628;50.104;14.614;2023-09-19T00:28:07;98059.33;;;20.68;45.34
75945;BME280;64628;50.104;14.614;2023-09-19T00:30:33;98060.96;;;20.70;45.38
75945;BME280;64628;50.104;14.614;2023-09-19T00:32:57;98068.33;;;20.70;45.73
75945;BME280;64628;50.104;14.614;2023-09-19T00:35:23;98067.33;;;20.71;45.64
75945;BME280;64628;50.104;14.614;2023-09-19T00:37:48;98073.56;;;20.70;45.59
75945;BME280;64628;50.104;14.614;2023-09-19T00:40:13;98073.38;;;20.67;45.52
75945;BME280;64628;50.104;14.614;2023-09-19T00:42:39;98076.69;;;20.65;45.31
75945;BME280;64628;50.104;14.614;2023-09-19T00:45:04;98073.55;;;20.63;45.00
75945;BME280;64628;50.104;14.614;2023-09-19T00:47:28;98080.94;;;20.69;46.08
75945;BME280;64628;50.104;14.614;2023-09-19T00:49:53;98085.70;;;20.62;46.70
75945;BME280;64628;50.104;14.614;2023-09-19T00:52:19;98087.81;;;20.39;47.02
75945;BME280;64628;50.104;14.614;2023-09-19T00:54:43;98099.15;;;20.48;47.18
75945;BME280;64628;50.104;14.614;2023-09-19T00:57:09;98093.03;;;20.06;47.36
75945;BME280;64628;50.104;14.614;2023-09-19T00:59:35;98095.90;;;20.19;47.62
75945;BME280;64628;50.104;14.614;2023-09-19T01:01:59;98091.02;;;20.04;47.65
75945;BME280;64628;50.104;14.614;2023-09-19T01:04:25;98085.58;;;19.73;47.72
75945;BME280;64628;50.104;14.614;2023-09-19T01:06:49;98088.64;;;19.88;47.58
75945;BME280;64628;50.104;14.614;2023-09-19T01:09:14;98086.40;;;19.79;47.82
75945;BME280;64628;50.104;14.614;2023-09-19T01:11:43;98082.35;;;19.70;47.86
75945;BME280;64628;50.104;14.614;2023-09-19T01:14:14;98079.63;;;19.61;47.79
75945;BME280;64628;50.104;14.614;2023-09-19T01:16:36;98081.99;;;19.82;48.00
75945;BME280;64628;50.104;14.614;2023-09-19T01:19:05;98082.15;;;19.54;48.18
75945;BME280;64628;50.104;14.614;2023-09-19T01:21:27;98081.77;;;19.72;48.34
75945;BME280;64628;50.104;14.614;2023-09-19T01:26:18;98082.27;;;19.44;48.28
75945;BME280;64628;50.104;14.614;2023-09-19T01:28:48;98084.03;;;19.42;48.40
75945;BME280;64628;50.104;14.614;2023-09-19T01:31:02;98080.18;;;19.68;48.28
75945;BME280;64628;50.104;14.614;2023-09-19T01:33:26;98078.13;;;19.39;48.50
75945;BME280;64628;50.104;14.614;2023-09-19T01:35:51;98074.46;;;19.33;48.26
75945;BME280;64628;50.104;14.614;2023-09-19T01:38:17;98070.85;;;19.34;48.24
75945;BME280;64628;50.104;14.614;2023-09-19T01:40:43;98070.69;;;19.37;48.20
75945;BME280;64628;50.104;14.614;2023-09-19T01:43:16;98068.85;;;19.42;47.94
75945;BME280;64628;50.104;14.614;2023-09-19T01:45:36;98065.73;;;19.36;47.92
75945;BME280;64628;50.104;14.614;2023-09-19T01:48:05;98066.85;;;19.37;47.79
75945;BME280;64628;50.104;14.614;2023-09-19T01:50:29;98068.69;;;19.77;47.39
75945;BME280;64628;50.104;14.614;2023-09-19T01:55:14;98068.36;;;19.39;47.71
75945;BME280;64628;50.104;14.614;2023-09-19T01:57:45;98067.62;;;19.61;47.70
75945;BME280;64628;50.104;14.614;2023-09-19T02:00:07;98069.08;;;19.61;47.62
75945;BME280;64628;50.104;14.614;2023-09-19T02:02:29;98068.36;;;19.34;47.45
75945;BME280;64628;50.104;14.614;2023-09-19T02:04:55;98063.99;;;19.44;47.71
75945;BME280;64628;50.104;14.614;2023-09-19T02:07:19;98061.13;;;19.39;47.57
75945;BME280;64628;50.104;14.614;2023-09-19T02:09:44;98057.18;;;19.22;47.33
75945;BME280;64628;50.104;14.614;2023-09-19T02:12:09;98064.94;;;19.52;47.00
75945;BME280;64628;50.104;14.614;2023-09-19T02:14:34;98057.79;;;19.50;47.07
75945;BME280;64628;50.104;14.614;2023-09-19T02:16:59;98058.30;;;19.38;46.86
75945;BME280;64628;50.104;14.614;2023-09-19T02:19:24;98049.76;;;19.59;46.60
75945;BME280;64628;50.104;14.614;2023-09-19T02:21:49;98048.26;;;19.34;47.00
75945;BME280;64628;50.104;14.614;2023-09-19T02:24:15;98045.50;;;19.18;46.87
75945;BME280;64628;50.104;14.614;2023-09-19T02:26:40;98043.60;;;19.30;46.90
75945;BME280;64628;50.104;14.614;2023-09-19T02:29:05;98043.20;;;19.62;46.65
75945;BME280;64628;50.104;14.614;2023-09-19T02:31:30;98042.48;;;19.40;46.49
75945;BME280;64628;50.104;14.614;2023-09-19T02:33:55;98046.01;;;19.62;46.66
75945;BME280;64628;50.104;14.614;2023-09-19T02:36:21;98039.08;;;19.78;46.38
75945;BME280;64628;50.104;14.614;2023-09-19T02:38:45;98044.86;;;19.37;46.63
75945;BME280;64628;50.104;14.614;2023-09-19T02:41:11;98047.00;;;19.61;46.90
75945;BME280;64628;50.104;14.614;2023-09-19T02:43:36;98052.48;;;19.83;46.73
75945;BME280;64628;50.104;14.614;2023-09-19T02:46:01;98050.86;;;19.47;46.74
75945;BME280;64628;50.104;14.614;2023-09-19T02:48:26;98055.31;;;19.49;46.52
75945;BME280;64628;50.104;14.614;2023-09-19T02:50:51;98050.25;;;20.00;46.41
75945;BME280;64628;50.104;14.614;2023-09-19T02:53:16;98053.00;;;19.51;46.34
75945;BME280;64628;50.104;14.614;2023-09-19T02:55:41;98053.08;;;19.56;46.50
75945;BME280;64628;50.104;14.614;2023-09-19T02:58:07;98051.88;;;19.55;46.48
75945;BME280;64628;50.104;14.614;2023-09-19T03:00:32;98046.69;;;19.59;46.17
75945;BME280;64628;50.104;14.614;2023-09-19T03:02:57;98049.39;;;19.87;46.24
75945;BME280;64628;50.104;14.614;2023-09-19T03:07:48;98056.42;;;19.77;45.78
75945;BME280;64628;50.104;14.614;2023-09-19T03:10:13;98059.50;;;19.72;45.24
75945;BME280;64628;50.104;14.614;2023-09-19T03:12:37;98052.16;;;19.85;44.61
75945;BME280;64628;50.104;14.614;2023-09-19T03:15:03;98046.24;;;20.18;44.44
75945;BME280;64628;50.104;14.614;2023-09-19T03:17:28;98049.74;;;20.28;44.22
75945;BME280;64628;50.104;14.614;2023-09-19T03:19:53;98053.21;;;20.53;43.70
75945;BME280;64628;50.104;14.614;2023-09-19T03:22:18;98052.11;;;20.49;43.83
75945;BME280;64628;50.104;14.614;2023-09-19T03:24:43;98054.04;;;20.75;43.14
75945;BME280;64628;50.104;14.614;2023-09-19T03:27:09;98051.46;;;20.45;43.33
75945;BME280;64628;50.104;14.614;2023-09-19T03:29:33;98056.50;;;20.14;43.26
75945;BME280;64628;50.104;14.614;2023-09-19T03:31:58;98063.16;;;20.60;43.51
75945;BME280;64628;50.104;14.614;2023-09-19T03:34:23;98057.09;;;20.65;43.24
75945;BME280;64628;50.104;14.614;2023-09-19T03:36:49;98056.30;;;20.22;43.18
75945;BME280;64628;50.104;14.614;2023-09-19T03:39:14;98060.40;;;20.72;43.10
75945;BME280;64628;50.104;14.614;2023-09-19T03:41:39;98061.54;;;20.09;43.44
75945;BME280;64628;50.104;14.614;2023-09-19T03:44:04;98061.87;;;20.41;43.27
75945;BME280;64628;50.104;14.614;2023-09-19T03:46:29;98059.84;;;20.50;43.22
75945;BME280;64628;50.104;14.614;2023-09-19T03:48:54;98054.65;;;20.61;42.83
75945;BME280;64628;50.104;14.614;2023-09-19T03:51:19;98052.89;;;20.22;43.16
75945;BME280;64628;50.104;14.614;2023-09-19T03:53:44;98052.01;;;20.77;42.79
75945;BME280;64628;50.104;14.614;2023-09-19T03:56:09;98060.07;;;20.75;43.13
75945;BME280;64628;50.104;14.614;2023-09-19T03:58:35;98061.70;;;20.84;42.89
75945;BME280;64628;50.104;14.614;2023-09-19T04:01:00;98065.85;;;20.40;42.93
75945;BME280;64628;50.104;14.614;2023-09-19T04:03:25;98060.96;;;20.94;42.61
75945;BME280;64628;50.104;14.614;2023-09-19T04:05:51;98064.59;;;20.83;42.56
75945;BME280;64628;50.104;14.614;2023-09-19T04:08:16;98072.69;;;20.34;42.90
75945;BME280;64628;50.104;14.614;2023-09-19T04:10:42;98075.12;;;20.91;42.80
75945;BME280;64628;50.104;14.614;2023-09-19T04:13:06;98079.80;;;20.51;42.68
75945;BME280;64628;50.104;14.614;2023-09-19T04:15:31;98081.86;;;20.72;42.51
75945;BME280;64628;50.104;14.614;2023-09-19T04:17:56;98089.00;;;21.01;42.51
75945;BME280;64628;50.104;14.614;2023-09-19T04:20:21;98089.66;;;20.47;42.49
75945;BME280;64628;50.104;14.614;2023-09-19T04:22:46;98093.39;;;20.73;42.42
75945;BME280;64628;50.104;14.614;2023-09-19T04:25:11;98095.00;;;20.35;42.63
75945;BME280;64628;50.104;14.614;2023-09-19T04:27:36;98095.72;;;20.74;42.38
75945;BME280;64628;50.104;14.614;2023-09-19T04:30:02;98100.18;;;20.64;42.67
75945;BME280;64628;50.104;14.614;2023-09-19T04:32:28;98106.94;;;20.92;42.52
75945;BME280;64628;50.104;14.614;2023-09-19T04:34:52;98105.91;;;20.43;42.57
75945;BME280;64628;50.104;14.614;2023-09-19T04:37:17;98112.64;;;20.74;42.48
75945;BME280;64628;50.104;14.614;2023-09-19T04:39:42;98114.87;;;20.44;42.45
75945;BME280;64628;50.104;14.614;2023-09-19T04:42:07;98115.78;;;20.30;42.81
75945;BME280;64628;50.104;14.614;2023-09-19T04:44:32;98119.25;;;20.52;42.85
75945;BME280;64628;50.104;14.614;2023-09-19T04:46:57;98122.88;;;20.87;42.72
75945;BME280;64628;50.104;14.614;2023-09-19T04:49:22;98124.56;;;20.34;42.88
75945;BME280;64628;50.104;14.614;2023-09-19T04:51:47;98127.01;;;20.39;42.77
75945;BME280;64628;50.104;14.614;2023-09-19T04:54:13;98132.63;;;20.81;42.82
75945;BME280;64628;50.104;14.614;2023-09-19T04:56:38;98137.10;;;20.39;42.91
75945;BME280;64628;50.104;14.614;2023-09-19T04:59:03;98138.01;;;20.44;42.77
75945;BME280;64628;50.104;14.614;2023-09-19T05:01:28;98136.63;;;20.62;42.82
75945;BME280;64628;50.104;14.614;2023-09-19T05:03:53;98137.93;;;20.75;42.91
75945;BME280;64628;50.104;14.614;2023-09-19T05:06:18;98143.62;;;20.32;43.07
75945;BME280;64628;50.104;14.614;2023-09-19T05:08:43;98143.74;;;20.58;42.88
75945;BME280;64628;50.104;14.614;2023-09-19T05:11:08;98148.35;;;20.34;43.01
75945;BME280;64628;50.104;14.614;2023-09-19T05:13:33;98153.60;;;20.59;42.79
75945;BME280;64628;50.104;14.614;2023-09-19T05:16:00;98151.03;;;20.62;42.83
75945;BME280;64628;50.104;14.614;2023-09-19T05:18:24;98149.04;;;20.73;42.60
75945;BME280;64628;50.104;14.614;2023-09-19T05:20:49;98147.37;;;20.48;42.76
75945;BME280;64628;50.104;14.614;2023-09-19T05:23:14;98148.50;;;20.60;42.94
75945;BME280;64628;50.104;14.614;2023-09-19T05:25:40;98160.66;;;20.25;43.06
75945;BME280;64628;50.104;14.614;2023-09-19T05:28:05;98156.99;;;20.45;42.84
75945;BME280;64628;50.104;14.614;2023-09-19T05:30:29;98157.37;;;20.50;42.72
75945;BME280;64628;50.104;14.614;2023-09-19T05:32:54;98155.14;;;20.58;42.70
75945;BME280;64628;50.104;14.614;2023-09-19T05:35:19;98157.24;;;20.59;42.58
75945;BME280;64628;50.104;14.614;2023-09-19T05:37:44;98159.37;;;20.72;42.65
75945;BME280;64628;50.104;14.614;2023-09-19T05:40:10;98162.84;;;20.85;42.51
75945;BME280;64628;50.104;14.614;2023-09-19T05:42:34;98169.49;;;20.58;42.71
75945;BME280;64628;50.104;14.614;2023-09-19T05:45:00;98173.23;;;20.98;42.36
75945;BME280;64628;50.104;14.614;2023-09-19T05:47:25;98171.64;;;20.90;42.48
75945;BME280;64628;50.104;14.614;2023-09-19T05:49:50;98170.58;;;20.68;42.48
75945;BME280;64628;50.104;14.614;2023-09-19T05:52:15;98173.71;;;21.01;42.38
75945;BME280;64628;50.104;14.614;2023-09-19T05:54:40;98177.03;;;20.85;42.23
75945;BME280;64628;50.104;14.614;2023-09-19T05:57:05;98177.81;;;20.86;42.24
75945;BME280;64628;50.104;14.614;2023-09-19T05:59:30;98178.71;;;20.92;42.19
75945;BME280;64628;50.104;14.614;2023-09-19T06:01:55;98179.61;;;20.73;42.48
75945;BME280;64628;50.104;14.614;2023-09-19T06:04:20;98179.92;;;20.75;42.37
75945;BME280;64628;50.104;14.614;2023-09-19T06:06:46;98180.00;;;20.64;42.54
75945;BME280;64628;50.104;14.614;2023-09-19T06:09:11;98181.74;;;20.94;42.26
75945;BME280;64628;50.104;14.614;2023-09-19T06:11:36;98184.62;;;20.88;42.12
75945;BME280;64628;50.104;14.614;2023-09-19T06:14:01;98190.51;;;20.91;42.11
75945;BME280;64628;50.104;14.614;2023-09-19T06:16:26;98197.01;;;20.81;42.42
75945;BME280;64628;50.104;14.614;2023-09-19T06:18:51;98203.05;;;20.83;41.85
75945;BME280;64628;50.104;14.614;2023-09-19T06:21:16;98207.13;;;20.90;41.96
75945;BME280;64628;50.104;14.614;2023-09-19T06:23:41;98219.06;;;21.10;42.34
75945;BME280;64628;50.104;14.614;2023-09-19T06:26:06;98224.05;;;20.94;41.60
75945;BME280;64628;50.104;14.614;2023-09-19T06:28:31;98223.61;;;21.22;41.47
75945;BME280;64628;50.104;14.614;2023-09-19T06:30:56;98226.54;;;21.22;41.60
75945;BME280;64628;50.104;14.614;2023-09-19T06:33:21;98226.80;;;21.18;41.67
75945;BME280;64628;50.104;14.614;2023-09-19T06:35:47;98231.95;;;21.30;41.62
75945;BME280;64628;50.104;14.614;2023-09-19T06:38:12;98232.38;;;21.32;41.31
75945;BME280;64628;50.104;14.614;2023-09-19T06:40:37;98233.35;;;21.18;41.32
75945;BME280;64628;50.104;14.614;2023-09-19T06:43:03;98234.80;;;21.48;41.20
75945;BME280;64628;50.104;14.614;2023-09-19T06:45:27;98235.71;;;21.51;41.17
75945;BME280;64628;50.104;14.614;2023-09-19T06:47:52;98243.29;;;21.70;41.07
75945;BME280;64628;50.104;14.614;2023-09-19T06:50:18;98246.04;;;21.66;40.89
75945;BME280;64628;50.104;14.614;2023-09-19T06:52:42;98254.80;;;21.33;40.87
75945;BME280;64628;50.104;14.614;2023-09-19T06:55:08;98258.65;;;21.42;40.86
75945;BME280;64628;50.104;14.614;2023-09-19T06:57:32;98260.83;;;21.69;40.86
75945;BME280;64628;50.104;14.614;2023-09-19T06:59:57;98260.93;;;21.88;40.50
75945;BME280;64628;50.104;14.614;2023-09-19T07:02:23;98262.71;;;21.49;40.27
75945;BME280;64628;50.104;14.614;2023-09-19T07:04:48;98268.44;;;21.82;40.27
75945;BME280;64628;50.104;14.614;2023-09-19T07:07:13;98271.03;;;21.91;39.81
75945;BME280;64628;50.104;14.614;2023-09-19T07:09:38;98268.76;;;22.10;39.68
75945;BME280;64628;50.104;14.614;2023-09-19T07:12:03;98275.06;;;22.37;39.39
75945;BME280;64628;50.104;14.614;2023-09-19T07:14:28;98280.11;;;22.32;39.16
75945;BME280;64628;50.104;14.614;2023-09-19T07:16:53;98285.94;;;22.62;39.02
75945;BME280;64628;50.104;14.614;2023-09-19T07:19:18;98285.23;;;23.02;38.13
75945;BME280;64628;50.104;14.614;2023-09-19T07:21:43;98287.03;;;22.99;38.37
75945;BME280;64628;50.104;14.614;2023-09-19T07:24:09;98286.08;;;22.66;38.15
75945;BME280;64628;50.104;14.614;2023-09-19T07:26:34;98289.25;;;23.15;37.54
75945;BME280;64628;50.104;14.614;2023-09-19T07:29:00;98290.06;;;23.08;37.67
75945;BME280;64628;50.104;14.614;2023-09-19T07:31:24;98290.49;;;23.28;37.49
75945;BME280;64628;50.104;14.614;2023-09-19T07:33:49;98292.91;;;23.17;37.25
75945;BME280;64628;50.104;14.614;2023-09-19T07:36:14;98291.58;;;23.74;37.08
75945;BME280;64628;50.104;14.614;2023-09-19T07:38:40;98294.03;;;23.53;36.43
75945;BME280;64628;50.104;14.614;2023-09-19T07:41:04;98293.45;;;23.79;36.83
75945;BME280;64628;50.104;14.614;2023-09-19T07:43:29;98293.24;;;23.68;36.26
75945;BME280;64628;50.104;14.614;2023-09-19T07:45:55;98294.49;;;23.50;36.55
75945;BME280;64628;50.104;14.614;2023-09-19T07:48:20;98294.87;;;23.44;36.71
75945;BME280;64628;50.104;14.614;2023-09-19T07:50:45;98296.07;;;23.55;36.59
75945;BME280;64628;50.104;14.614;2023-09-19T07:53:10;98302.69;;;23.55;36.38
75945;BME280;64628;50.104;14.614;2023-09-19T07:55:35;98308.34;;;23.45;36.37
75945;BME280;64628;50.104;14.614;2023-09-19T07:58:00;98309.78;;;23.36;36.55
75945;BME280;64628;50.104;14.614;2023-09-19T08:00:25;98318.12;;;23.37;36.43
75945;BME280;64628;50.104;14.614;2023-09-19T08:02:50;98311.21;;;23.47;36.19
75945;BME280;64628;50.104;14.614;2023-09-19T08:05:15;98315.01;;;23.26;36.67
75945;BME280;64628;50.104;14.614;2023-09-19T08:07:42;98319.76;;;23.30;36.45
75945;BME280;64628;50.104;14.614;2023-09-19T08:10:06;98324.44;;;23.23;36.37
75945;BME280;64628;50.104;14.614;2023-09-19T08:12:30;98324.05;;;23.43;36.46
75945;BME280;64628;50.104;14.614;2023-09-19T08:14:55;98325.27;;;23.15;36.65
75945;BME280;64628;50.104;14.614;2023-09-19T08:17:20;98324.44;;;23.14;36.64
75945;BME280;64628;50.104;14.614;2023-09-19T08:19:46;98331.22;;;23.30;36.11
75945;BME280;64628;50.104;14.614;2023-09-19T08:22:10;98330.32;;;23.25;36.13
75945;BME280;64628;50.104;14.614;2023-09-19T08:24:36;98334.02;;;23.45;36.04
75945;BME280;64628;50.104;14.614;2023-09-19T08:27:01;98333.07;;;23.47;35.95
75945;BME280;64628;50.104;14.614;2023-09-19T08:29:26;98337.38;;;23.68;35.94
75945;BME280;64628;50.104;14.614;2023-09-19T08:31:51;98337.01;;;24.07;36.01
75945;BME280;64628;50.104;14.614;2023-09-19T08:34:16;98345.32;;;24.25;34.87
75945;BME280;64628;50.104;14.614;2023-09-19T08:36:41;98344.46;;;24.12;35.03
75945;BME280;64628;50.104;14.614;2023-09-19T08:39:06;98344.33;;;24.31;34.61
75945;BME280;64628;50.104;14.614;2023-09-19T08:41:32;98344.13;;;24.39;34.47
75945;BME280;64628;50.104;14.614;2023-09-19T08:43:59;98338.35;;;24.45;33.70
75945;BME280;64628;50.104;14.614;2023-09-19T08:46:26;98337.76;;;24.74;33.76
75945;BME280;64628;50.104;14.614;2023-09-19T08:48:57;98344.85;;;24.88;33.18
75945;BME280;64628;50.104;14.614;2023-09-19T08:51:21;98343.05;;;25.26;32.90
75945;BME280;64628;50.104;14.614;2023-09-19T08:53:45;98345.54;;;25.64;32.36
75945;BME280;64628;50.104;14.614;2023-09-19T08:56:17;98353.04;;;25.21;31.87
75945;BME280;64628;50.104;14.614;2023-09-19T09:01:12;98355.85;;;24.83;32.30
75945;BME280;64628;50.104;14.614;2023-09-19T09:03:32;98352.96;;;25.14;32.12
75945;BME280;64628;50.104;14.614;2023-09-19T09:05:58;98356.75;;;25.07;32.22
75945;BME280;64628;50.104;14.614;2023-09-19T09:08:33;98356.87;;;25.35;31.88
75945;BME280;64628;50.104;14.614;2023-09-19T09:10:46;98358.13;;;25.30;32.38
75945;BME280;64628;50.104;14.614;2023-09-19T09:13:10;98362.71;;;24.84;32.73
75945;BME280;64628;50.104;14.614;2023-09-19T09:15:41;98370.06;;;25.66;31.78
75945;BME280;64628;50.104;14.614;2023-09-19T09:18:10;98368.13;;;26.01;31.27
75945;BME280;64628;50.104;14.614;2023-09-19T09:20:35;98365.89;;;25.88;30.33
75945;BME280;64628;50.104;14.614;2023-09-19T09:22:55;98362.46;;;26.42;29.69
75945;BME280;64628;50.104;14.614;2023-09-19T09:25:18;98368.36;;;26.84;28.89
75945;BME280;64628;50.104;14.614;2023-09-19T09:27:46;98373.98;;;26.72;28.73
75945;BME280;64628;50.104;14.614;2023-09-19T09:32:36;98365.03;;;26.57;28.59
75945;BME280;64628;50.104;14.614;2023-09-19T09:35:08;98367.51;;;26.51;29.80
75945;BME280;64628;50.104;14.614;2023-09-19T09:37:29;98366.86;;;26.20;29.96
75945;BME280;64628;50.104;14.614;2023-09-19T09:40:02;98364.83;;;26.61;29.76
75945;BME280;64628;50.104;14.614;2023-09-19T09:42:29;98370.16;;;26.35;30.01
75945;BME280;64628;50.104;14.614;2023-09-19T09:47:10;98370.27;;;25.43;31.49
75945;BME280;64628;50.104;14.614;2023-09-19T09:49:40;98365.71;;;25.28;31.67
75945;BME280;64628;50.104;14.614;2023-09-19T09:52:11;98369.38;;;25.03;31.41
75945;BME280;64628;50.104;14.614;2023-09-19T09:57:00;98354.65;;;25.08;32.51
75945;BME280;64628;50.104;14.614;2023-09-19T09:59:19;98359.00;;;24.71;32.39
75945;BME280;64628;50.104;14.614;2023-09-19T10:01:51;98357.51;;;25.70;31.44
75945;BME280;64628;50.104;14.614;2023-09-19T10:09:09;98349.75;;;27.66;28.08
75945;BME280;64628;50.104;14.614;2023-09-19T10:11:28;98350.07;;;27.92;26.98
75945;BME280;64628;50.104;14.614;2023-09-19T10:14:05;98351.17;;;28.53;26.99
75945;BME280;64628;50.104;14.614;2023-09-19T10:16:22;98347.47;;;28.78;26.19
75945;BME280;64628;50.104;14.614;2023-09-19T10:18:54;98346.30;;;29.13;25.15
75945;BME280;64628;50.104;14.614;2023-09-19T10:23:38;98357.42;;;28.58;25.76
75945;BME280;64628;50.104;14.614;2023-09-19T10:26:03;98352.56;;;29.11;25.47
75945;BME280;64628;50.104;14.614;2023-09-19T10:28:29;98360.25;;;28.99;25.64
75945;BME280;64628;50.104;14.614;2023-09-19T10:30:53;98359.30;;;28.61;25.30
75945;BME280;64628;50.104;14.614;2023-09-19T10:33:28;98361.54;;;28.71;25.48
75945;BME280;64628;50.104;14.614;2023-09-19T10:35:51;98367.76;;;28.72;25.36
75945;BME280;64628;50.104;14.614;2023-09-19T10:38:17;98362.06;;;28.75;25.28
75945;BME280;64628;50.104;14.614;2023-09-19T10:40:48;98365.81;;;28.28;25.41
75945;BME280;64628;50.104;14.614;2023-09-19T10:43:04;98365.69;;;27.57;26.35
75945;BME280;64628;50.104;14.614;2023-09-19T10:45:29;98361.45;;;27.78;26.41
75945;BME280;64628;50.104;14.614;2023-09-19T10:47:53;98360.20;;;27.66;26.69
75945;BME280;64628;50.104;14.614;2023-09-19T10:50:20;98357.56;;;27.44;27.26
75945;BME280;64628;50.104;14.614;2023-09-19T10:52:45;98357.74;;;27.52;27.32
75945;BME280;64628;50.104;14.614;2023-09-19T10:55:15;98354.28;;;27.30;27.07
75945;BME280;64628;50.104;14.614;2023-09-19T10:57:36;98356.55;;;27.33;27.20
75945;BME280;64628;50.104;14.614;2023-09-19T11:00:03;98358.30;;;27.48;26.32
75945;BME280;64628;50.104;14.614;2023-09-19T11:02:28;98350.63;;;27.30;26.50
75945;BME280;64628;50.104;14.614;2023-09-19T11:04:53;98351.35;;;27.86;26.19
75945;BME280;64628;50.104;14.614;2023-09-19T11:07:19;98352.23;;;27.90;26.09
75945;BME280;64628;50.104;14.614;2023-09-19T11:09:46;98352.84;;;28.27;25.29
75945;BME280;64628;50.104;14.614;2023-09-19T11:12:11;98350.66;;;28.54;24.21
75945;BME280;64628;50.104;14.614;2023-09-19T11:14:40;98350.45;;;28.73;23.92
75945;BME280;64628;50.104;14.614;2023-09-19T11:21:53;98348.61;;;29.32;23.15
75945;BME280;64628;50.104;14.614;2023-09-19T11:24:29;98354.88;;;29.23;22.23
75945;BME280;64628;50.104;14.614;2023-09-19T11:26:45;98355.12;;;28.48;21.99
75945;BME280;64628;50.104;14.614;2023-09-19T11:31:41;98347.46;;;27.99;23.65
75945;BME280;64628;50.104;14.614;2023-09-19T11:36:35;98349.54;;;27.74;24.10
75945;BME280;64628;50.104;14.614;2023-09-19T11:38:59;98344.16;;;27.78;23.94
75945;BME280;64628;50.104;14.614;2023-09-19T11:41:37;98341.22;;;27.99;24.56
75945;BME280;64628;50.104;14.614;2023-09-19T11:43:45;98349.69;;;28.01;23.69
75945;BME280;64628;50.104;14.614;2023-09-19T11:46:10;98344.66;;;28.42;22.67
75945;BME280;64628;50.104;14.614;2023-09-19T11:48:38;98343.07;;;28.90;22.24
75945;BME280;64628;50.104;14.614;2023-09-19T11:51:03;98342.36;;;28.86;21.84
75945;BME280;64628;50.104;14.614;2023-09-19T11:53:32;98337.98;;;29.77;21.91
75945;BME280;64628;50.104;14.614;2023-09-19T11:55:53;98345.32;;;29.66;21.66
75945;BME280;64628;50.104;14.614;2023-09-19T11:58:19;98351.41;;;29.99;21.91
75945;BME280;64628;50.104;14.614;2023-09-19T12:00:45;98349.54;;;30.04;21.05
75945;BME280;64628;50.104;14.614;2023-09-19T12:03:12;98345.79;;;29.99;20.70
75945;BME280;64628;50.104;14.614;2023-09-19T12:05:36;98349.78;;;30.04;19.65
75945;BME280;64628;50.104;14.614;2023-09-19T12:08:02;98347.12;;;29.93;19.19
75945;BME280;64628;50.104;14.614;2023-09-19T12:10:27;98344.35;;;29.95;19.17
75945;BME280;64628;50.104;14.614;2023-09-19T12:12:53;98348.02;;;29.72;19.57
75945;BME280;64628;50.104;14.614;2023-09-19T12:15:23;98352.21;;;29.75;19.38
75945;BME280;64628;50.104;14.614;2023-09-19T12:17:44;98347.63;;;29.79;19.64
75945;BME280;64628;50.104;14.614;2023-09-19T12:20:10;98349.27;;;29.89;19.57
75945;BME280;64628;50.104;14.614;2023-09-19T12:22:39;98344.77;;;29.51;19.03
75945;BME280;64628;50.104;14.614;2023-09-19T12:25:06;98345.23;;;29.90;19.33
75945;BME280;64628;50.104;14.614;2023-09-19T12:27:27;98340.65;;;29.97;19.42
75945;BME280;64628;50.104;14.614;2023-09-19T12:29:53;98338.53;;;29.47;19.84
75945;BME280;64628;50.104;14.614;2023-09-19T12:32:18;98342.59;;;29.66;19.86
75945;BME280;64628;50.104;14.614;2023-09-19T12:34:50;98344.33;;;29.41;20.26
75945;BME280;64628;50.104;14.614;2023-09-19T12:37:11;98331.88;;;29.13;20.03
75945;BME280;64628;50.104;14.614;2023-09-19T12:39:35;98334.40;;;29.94;19.50
75945;BME280;64628;50.104;14.614;2023-09-19T12:42:03;98339.95;;;29.59;20.13
75945;BME280;64628;50.104;14.614;2023-09-19T12:44:31;98336.71;;;29.71;19.64
75945;BME280;64628;50.104;14.614;2023-09-19T12:46:53;98335.07;;;29.87;19.63
75945;BME280;64628;50.104;14.614;2023-09-19T12:49:19;98331.70;;;29.73;18.88
75945;BME280;64628;50.104;14.614;2023-09-19T12:51:44;98337.97;;;30.03;18.77
75945;BME280;64628;50.104;14.614;2023-09-19T12:54:09;98334.27;;;30.24;19.71
75945;BME280;64628;50.104;14.614;2023-09-19T12:56:40;98333.95;;;29.68;19.24
75945;BME280;64628;50.104;14.614;2023-09-19T12:59:00;98335.21;;;29.90;19.48
75945;BME280;64628;50.104;14.614;2023-09-19T13:01:27;98331.92;;;29.72;19.43
75945;BME280;64628;50.104;14.614;2023-09-19T13:08:43;98333.88;;;29.71;18.86
75945;BME280;64628;50.104;14.614;2023-09-19T13:11:11;98327.77;;;29.67;18.81
75945;BME280;64628;50.104;14.614;2023-09-19T13:13:35;98329.02;;;29.26;19.47
75945;BME280;64628;50.104;14.614;2023-09-19T13:16:01;98330.04;;;28.63;19.76
75945;BME280;64628;50.104;14.614;2023-09-19T13:18:26;98321.30;;;28.72;20.31